sensor_id;sensor_type;location;lat;lon;timestamp;P1;durP1;ratioP1;P2;durP2;ratioP2
66139;SDS011;52945;51.908;8.364;2023-02-24T00:01:54;8.80;;;1.67;;
66139;SDS011;52945;51.908;8.364;2023-02-24T00:05:00;12.75;;;1.80;;
66139;SDS011;52945;51.908;8.364;2023-02-24T00:08:00;11.60;;;1.90;;
66139;SDS011;52945;51.908;8.364;2023-02-24T00:11:05;7.82;;;2.10;;
66139;SDS011;52945;51.908;8.364;2023-02-24T00:14:13;6.13;;;1.60;;
66139;SDS011;52945;51.908;8.364;2023-02-24T00:17:15;11.27;;;2.45;;
66139;SDS011;52945;51.908;8.364;2023-02-24T00:20:16;9.45;;;1.90;;
66139;SDS011;52945;51.908;8.364;2023-02-24T00:23:17;8.55;;;2.28;;
66139;SDS011;52945;51.908;8.364;2023-02-24T00:26:18;8.70;;;2.47;;
66139;SDS011;52945;51.908;8.364;2023-02-24T00:29:20;9.02;;;1.98;;
66139;SDS011;52945;51.908;8.364;2023-02-24T00:35:22;6.28;;;1.98;;
66139;SDS011;52945;51.908;8.364;2023-02-24T00:38:22;10.45;;;2.03;;
66139;SDS011;52945;51.908;8.364;2023-02-24T00:41:30;17.13;;;2.47;;
66139;SDS011;52945;51.908;8.364;2023-02-24T00:44:36;7.22;;;1.73;;
66139;SDS011;52945;51.908;8.364;2023-02-24T00:47:38;10.50;;;2.80;;
66139;SDS011;52945;51.908;8.364;2023-02-24T00:50:39;12.25;;;2.03;;
66139;SDS011;52945;51.908;8.364;2023-02-24T00:53:39;10.73;;;2.17;;
66139;SDS011;52945;51.908;8.364;2023-02-24T00:56:44;8.60;;;2.35;;
66139;SDS011;52945;51.908;8.364;2023-02-24T00:59:46;11.38;;;2.35;;
66139;SDS011;52945;51.908;8.364;2023-02-24T01:02:46;12.90;;;1.88;;
66139;SDS011;52945;51.908;8.364;2023-02-24T01:05:47;7.80;;;2.25;;
66139;SDS011;52945;51.908;8.364;2023-02-24T01:08:48;6.00;;;1.83;;
66139;SDS011;52945;51.908;8.364;2023-02-24T01:11:50;7.75;;;1.48;;
66139;SDS011;52945;51.908;8.364;2023-02-24T01:15:09;7.47;;;1.77;;
66139;SDS011;52945;51.908;8.364;2023-02-24T01:18:10;9.85;;;1.75;;
66139;SDS011;52945;51.908;8.364;2023-02-24T01:21:11;7.00;;;1.70;;
66139;SDS011;52945;51.908;8.364;2023-02-24T01:24:12;5.45;;;1.73;;
66139;SDS011;52945;51.908;8.364;2023-02-24T01:27:16;7.05;;;1.65;;
66139;SDS011;52945;51.908;8.364;2023-02-24T01:30:18;8.95;;;1.80;;
66139;SDS011;52945;51.908;8.364;2023-02-24T01:33:20;6.18;;;1.67;;
66139;SDS011;52945;51.908;8.364;2023-02-24T01:36:21;6.68;;;1.80;;
66139;SDS011;52945;51.908;8.364;2023-02-24T01:39:24;9.55;;;1.75;;
66139;SDS011;52945;51.908;8.364;2023-02-24T01:42:25;9.02;;;1.45;;
66139;SDS011;52945;51.908;8.364;2023-02-24T01:45:27;14.38;;;2.25;;
66139;SDS011;52945;51.908;8.364;2023-02-24T01:48:28;9.52;;;2.05;;
66139;SDS011;52945;51.908;8.364;2023-02-24T01:51:30;7.78;;;2.47;;
66139;SDS011;52945;51.908;8.364;2023-02-24T01:54:34;8.35;;;1.58;;
66139;SDS011;52945;51.908;8.364;2023-02-24T01:57:40;8.98;;;2.28;;
66139;SDS011;52945;51.908;8.364;2023-02-24T02:00:41;10.80;;;2.35;;
66139;SDS011;52945;51.908;8.364;2023-02-24T02:03:46;8.55;;;2.03;;
66139;SDS011;52945;51.908;8.364;2023-02-24T02:06:48;12.18;;;2.40;;
66139;SDS011;52945;51.908;8.364;2023-02-24T02:09:49;10.80;;;2.53;;
66139;SDS011;52945;51.908;8.364;2023-02-24T02:12:53;5.30;;;2.25;;
66139;SDS011;52945;51.908;8.364;2023-02-24T02:15:59;10.80;;;1.88;;
66139;SDS011;52945;51.908;8.364;2023-02-24T02:29:39;8.23;;;2.15;;
66139;SDS011;52945;51.908;8.364;2023-02-24T02:33:40;10.05;;;2.22;;
66139;SDS011;52945;51.908;8.364;2023-02-24T02:37:05;7.43;;;2.28;;
66139;SDS011;52945;51.908;8.364;2023-02-24T02:44:07;6.03;;;2.35;;
66139;SDS011;52945;51.908;8.364;2023-02-24T02:47:20;3.63;;;1.52;;
66139;SDS011;52945;51.908;8.364;2023-02-24T02:50:35;13.30;;;2.20;;
66139;SDS011;52945;51.908;8.364;2023-02-24T02:53:48;6.63;;;1.63;;
66139;SDS011;52945;51.908;8.364;2023-02-24T02:57:11;11.88;;;1.63;;
66139;SDS011;52945;51.908;8.364;2023-02-24T03:00:27;7.57;;;1.80;;
66139;SDS011;52945;51.908;8.364;2023-02-24T03:03:37;2.95;;;1.63;;
66139;SDS011;52945;51.908;8.364;2023-02-24T03:06:43;3.88;;;1.65;;
66139;SDS011;52945;51.908;8.364;2023-02-24T03:09:49;5.43;;;2.05;;
66139;SDS011;52945;51.908;8.364;2023-02-24T03:12:56;5.30;;;1.50;;
66139;SDS011;52945;51.908;8.364;2023-02-24T03:15:59;5.50;;;1.92;;
66139;SDS011;52945;51.908;8.364;2023-02-24T03:19:03;4.97;;;1.65;;
66139;SDS011;52945;51.908;8.364;2023-02-24T03:22:10;6.15;;;1.73;;
66139;SDS011;52945;51.908;8.364;2023-02-24T03:25:15;5.85;;;2.15;;
66139;SDS011;52945;51.908;8.364;2023-02-24T03:28:19;16.65;;;2.60;;
66139;SDS011;52945;51.908;8.364;2023-02-24T03:31:25;6.80;;;2.38;;
66139;SDS011;52945;51.908;8.364;2023-02-24T03:34:37;12.63;;;2.33;;
66139;SDS011;52945;51.908;8.364;2023-02-24T03:37:47;9.68;;;2.47;;
66139;SDS011;52945;51.908;8.364;2023-02-24T03:43:50;7.93;;;1.98;;
66139;SDS011;52945;51.908;8.364;2023-02-24T03:46:51;6.25;;;1.73;;
66139;SDS011;52945;51.908;8.364;2023-02-24T03:49:54;6.68;;;1.75;;
66139;SDS011;52945;51.908;8.364;2023-02-24T03:52:58;11.27;;;1.83;;
66139;SDS011;52945;51.908;8.364;2023-02-24T03:56:18;4.75;;;1.80;;
66139;SDS011;52945;51.908;8.364;2023-02-24T04:02:59;8.43;;;1.85;;
66139;SDS011;52945;51.908;8.364;2023-02-24T04:10:05;6.07;;;1.52;;
66139;SDS011;52945;51.908;8.364;2023-02-24T04:13:12;9.50;;;1.83;;
66139;SDS011;52945;51.908;8.364;2023-02-24T04:16:39;4.75;;;1.25;;
66139;SDS011;52945;51.908;8.364;2023-02-24T04:19:46;6.07;;;1.48;;
66139;SDS011;52945;51.908;8.364;2023-02-24T04:22:49;6.35;;;1.38;;
66139;SDS011;52945;51.908;8.364;2023-02-24T04:25:56;10.77;;;2.13;;
66139;SDS011;52945;51.908;8.364;2023-02-24T04:28:56;9.57;;;1.63;;
66139;SDS011;52945;51.908;8.364;2023-02-24T04:31:59;7.40;;;1.45;;
66139;SDS011;52945;51.908;8.364;2023-02-24T04:35:05;7.03;;;1.38;;
66139;SDS011;52945;51.908;8.364;2023-02-24T04:38:08;8.40;;;1.50;;
66139;SDS011;52945;51.908;8.364;2023-02-24T04:41:09;8.57;;;1.52;;
66139;SDS011;52945;51.908;8.364;2023-02-24T04:44:09;5.72;;;1.48;;
66139;SDS011;52945;51.908;8.364;2023-02-24T04:47:10;4.45;;;1.33;;
66139;SDS011;52945;51.908;8.364;2023-02-24T04:50:12;6.32;;;1.58;;
66139;SDS011;52945;51.908;8.364;2023-02-24T04:53:21;7.35;;;1.38;;
66139;SDS011;52945;51.908;8.364;2023-02-24T04:56:26;7.10;;;1.55;;
66139;SDS011;52945;51.908;8.364;2023-02-24T04:59:27;4.85;;;1.38;;
66139;SDS011;52945;51.908;8.364;2023-02-24T05:02:29;7.68;;;1.20;;
66139;SDS011;52945;51.908;8.364;2023-02-24T05:05:30;5.45;;;1.20;;
66139;SDS011;52945;51.908;8.364;2023-02-24T05:08:34;4.47;;;1.40;;
66139;SDS011;52945;51.908;8.364;2023-02-24T05:11:35;2.55;;;0.85;;
66139;SDS011;52945;51.908;8.364;2023-02-24T05:14:35;5.22;;;1.20;;
66139;SDS011;52945;51.908;8.364;2023-02-24T05:17:38;2.80;;;1.40;;
66139;SDS011;52945;51.908;8.364;2023-02-24T05:20:41;5.90;;;1.63;;
66139;SDS011;52945;51.908;8.364;2023-02-24T05:24:02;3.08;;;1.13;;
66139;SDS011;52945;51.908;8.364;2023-02-24T05:27:05;8.43;;;1.50;;
66139;SDS011;52945;51.908;8.364;2023-02-24T05:30:06;2.40;;;1.30;;
66139;SDS011;52945;51.908;8.364;2023-02-24T05:33:08;1.35;;;0.82;;
66139;SDS011;52945;51.908;8.364;2023-02-24T05:36:10;3.08;;;1.40;;
66139;SDS011;52945;51.908;8.364;2023-02-24T05:39:16;7.85;;;1.60;;
66139;SDS011;52945;51.908;8.364;2023-02-24T05:42:18;9.13;;;1.50;;
66139;SDS011;52945;51.908;8.364;2023-02-24T05:45:19;4.10;;;1.13;;
66139;SDS011;52945;51.908;8.364;2023-02-24T05:48:19;3.55;;;1.10;;
66139;SDS011;52945;51.908;8.364;2023-02-24T05:51:21;3.45;;;1.38;;
66139;SDS011;52945;51.908;8.364;2023-02-24T05:54:29;5.40;;;1.10;;
66139;SDS011;52945;51.908;8.364;2023-02-24T05:57:31;2.72;;;1.08;;
66139;SDS011;52945;51.908;8.364;2023-02-24T06:00:34;5.30;;;1.40;;
66139;SDS011;52945;51.908;8.364;2023-02-24T06:03:38;1.45;;;1.30;;
66139;SDS011;52945;51.908;8.364;2023-02-24T06:06:40;8.07;;;1.50;;
66139;SDS011;52945;51.908;8.364;2023-02-24T06:09:41;4.60;;;1.10;;
66139;SDS011;52945;51.908;8.364;2023-02-24T06:12:41;5.82;;;1.27;;
66139;SDS011;52945;51.908;8.364;2023-02-24T06:15:42;1.90;;;0.90;;
66139;SDS011;52945;51.908;8.364;2023-02-24T06:18:49;2.95;;;1.27;;
66139;SDS011;52945;51.908;8.364;2023-02-24T06:21:49;4.45;;;1.10;;
66139;SDS011;52945;51.908;8.364;2023-02-24T06:24:52;5.32;;;1.58;;
66139;SDS011;52945;51.908;8.364;2023-02-24T06:27:53;3.20;;;1.33;;
66139;SDS011;52945;51.908;8.364;2023-02-24T06:30:55;4.05;;;1.42;;
66139;SDS011;52945;51.908;8.364;2023-02-24T06:33:55;8.05;;;1.52;;
66139;SDS011;52945;51.908;8.364;2023-02-24T06:36:56;7.13;;;1.55;;
66139;SDS011;52945;51.908;8.364;2023-02-24T06:39:57;3.75;;;1.13;;
66139;SDS011;52945;51.908;8.364;2023-02-24T06:42:58;7.20;;;1.63;;
66139;SDS011;52945;51.908;8.364;2023-02-24T06:46:00;3.00;;;1.00;;
66139;SDS011;52945;51.908;8.364;2023-02-24T06:49:01;1.88;;;0.88;;
66139;SDS011;52945;51.908;8.364;2023-02-24T06:52:01;2.78;;;0.70;;
66139;SDS011;52945;51.908;8.364;2023-02-24T06:55:02;5.80;;;1.13;;
66139;SDS011;52945;51.908;8.364;2023-02-24T06:58:03;2.30;;;1.00;;
66139;SDS011;52945;51.908;8.364;2023-02-24T07:01:04;3.60;;;1.13;;
66139;SDS011;52945;51.908;8.364;2023-02-24T07:04:07;2.20;;;0.65;;
66139;SDS011;52945;51.908;8.364;2023-02-24T07:07:11;8.52;;;1.08;;
66139;SDS011;52945;51.908;8.364;2023-02-24T07:10:16;3.10;;;1.08;;
66139;SDS011;52945;51.908;8.364;2023-02-24T07:13:16;5.55;;;1.20;;
66139;SDS011;52945;51.908;8.364;2023-02-24T07:16:18;1.30;;;0.73;;
66139;SDS011;52945;51.908;8.364;2023-02-24T07:19:24;6.32;;;1.30;;
66139;SDS011;52945;51.908;8.364;2023-02-24T07:22:28;5.55;;;0.82;;
66139;SDS011;52945;51.908;8.364;2023-02-24T07:25:28;3.30;;;1.20;;
66139;SDS011;52945;51.908;8.364;2023-02-24T07:28:32;1.65;;;1.05;;
66139;SDS011;52945;51.908;8.364;2023-02-24T07:31:33;1.17;;;0.98;;
66139;SDS011;52945;51.908;8.364;2023-02-24T07:34:35;7.80;;;1.30;;
66139;SDS011;52945;51.908;8.364;2023-02-24T07:37:39;2.45;;;0.82;;
66139;SDS011;52945;51.908;8.364;2023-02-24T07:40:40;1.52;;;0.73;;
66139;SDS011;52945;51.908;8.364;2023-02-24T07:43:41;3.10;;;1.20;;
66139;SDS011;52945;51.908;8.364;2023-02-24T07:46:43;3.00;;;0.82;;
66139;SDS011;52945;51.908;8.364;2023-02-24T07:49:44;2.65;;;0.95;;
66139;SDS011;52945;51.908;8.364;2023-02-24T07:52:45;6.00;;;0.93;;
66139;SDS011;52945;51.908;8.364;2023-02-24T07:58:47;2.95;;;1.02;;
66139;SDS011;52945;51.908;8.364;2023-02-24T08:01:56;3.38;;;0.80;;
66139;SDS011;52945;51.908;8.364;2023-02-24T08:04:57;3.78;;;0.68;;
66139;SDS011;52945;51.908;8.364;2023-02-24T08:08:01;3.45;;;1.23;;
66139;SDS011;52945;51.908;8.364;2023-02-24T08:11:04;8.07;;;1.00;;
66139;SDS011;52945;51.908;8.364;2023-02-24T08:14:09;3.22;;;0.98;;
66139;SDS011;52945;51.908;8.364;2023-02-24T08:17:12;5.20;;;1.10;;
66139;SDS011;52945;51.908;8.364;2023-02-24T08:20:19;1.25;;;1.15;;
66139;SDS011;52945;51.908;8.364;2023-02-24T08:23:20;6.80;;;1.38;;
66139;SDS011;52945;51.908;8.364;2023-02-24T08:26:22;7.22;;;1.05;;
66139;SDS011;52945;51.908;8.364;2023-02-24T08:29:33;2.88;;;1.30;;
66139;SDS011;52945;51.908;8.364;2023-02-24T08:32:40;1.10;;;0.60;;
66139;SDS011;52945;51.908;8.364;2023-02-24T08:35:49;4.78;;;1.67;;
66139;SDS011;52945;51.908;8.364;2023-02-24T08:38:59;3.50;;;0.88;;
66139;SDS011;52945;51.908;8.364;2023-02-24T08:42:00;11.45;;;1.58;;
66139;SDS011;52945;51.908;8.364;2023-02-24T08:45:01;9.18;;;1.10;;
66139;SDS011;52945;51.908;8.364;2023-02-24T08:48:02;5.45;;;1.30;;
66139;SDS011;52945;51.908;8.364;2023-02-24T08:51:24;3.92;;;1.25;;
66139;SDS011;52945;51.908;8.364;2023-02-24T08:54:29;2.40;;;0.90;;
66139;SDS011;52945;51.908;8.364;2023-02-24T08:57:30;3.92;;;1.10;;
66139;SDS011;52945;51.908;8.364;2023-02-24T09:00:34;7.05;;;1.45;;
66139;SDS011;52945;51.908;8.364;2023-02-24T09:03:56;5.15;;;1.00;;
66139;SDS011;52945;51.908;8.364;2023-02-24T09:06:58;3.33;;;1.27;;
66139;SDS011;52945;51.908;8.364;2023-02-24T09:10:02;4.43;;;1.65;;
66139;SDS011;52945;51.908;8.364;2023-02-24T09:13:04;2.03;;;1.08;;
66139;SDS011;52945;51.908;8.364;2023-02-24T09:16:07;2.33;;;1.08;;
66139;SDS011;52945;51.908;8.364;2023-02-24T09:19:15;7.78;;;1.02;;
66139;SDS011;52945;51.908;8.364;2023-02-24T09:22:34;2.75;;;0.95;;
66139;SDS011;52945;51.908;8.364;2023-02-24T09:25:56;4.22;;;0.93;;
66139;SDS011;52945;51.908;8.364;2023-02-24T09:28:56;1.15;;;0.60;;
66139;SDS011;52945;51.908;8.364;2023-02-24T09:31:57;3.25;;;0.77;;
66139;SDS011;52945;51.908;8.364;2023-02-24T09:35:03;1.92;;;0.80;;
66139;SDS011;52945;51.908;8.364;2023-02-24T09:38:04;8.13;;;1.25;;
66139;SDS011;52945;51.908;8.364;2023-02-24T09:41:06;5.43;;;1.45;;
66139;SDS011;52945;51.908;8.364;2023-02-24T09:44:39;2.30;;;1.27;;
66139;SDS011;52945;51.908;8.364;2023-02-24T09:47:44;4.43;;;1.05;;
66139;SDS011;52945;51.908;8.364;2023-02-24T09:50:56;4.35;;;1.20;;
66139;SDS011;52945;51.908;8.364;2023-02-24T09:54:00;7.85;;;1.30;;
66139;SDS011;52945;51.908;8.364;2023-02-24T09:57:04;6.45;;;1.30;;
66139;SDS011;52945;51.908;8.364;2023-02-24T10:00:15;3.53;;;0.75;;
66139;SDS011;52945;51.908;8.364;2023-02-24T10:03:25;4.95;;;1.08;;
66139;SDS011;52945;51.908;8.364;2023-02-24T10:13:55;1.88;;;0.93;;
66139;SDS011;52945;51.908;8.364;2023-02-24T10:16:56;1.67;;;1.02;;
66139;SDS011;52945;51.908;8.364;2023-02-24T10:20:23;1.38;;;1.27;;
66139;SDS011;52945;51.908;8.364;2023-02-24T10:23:43;3.35;;;1.30;;
66139;SDS011;52945;51.908;8.364;2023-02-24T10:30:22;5.57;;;1.42;;
66139;SDS011;52945;51.908;8.364;2023-02-24T10:33:40;3.22;;;1.63;;
66139;SDS011;52945;51.908;8.364;2023-02-24T10:36:45;5.72;;;1.77;;
66139;SDS011;52945;51.908;8.364;2023-02-24T10:39:49;10.35;;;1.95;;
66139;SDS011;52945;51.908;8.364;2023-02-24T10:42:50;8.60;;;2.10;;
66139;SDS011;52945;51.908;8.364;2023-02-24T10:46:01;8.25;;;1.83;;
66139;SDS011;52945;51.908;8.364;2023-02-24T10:49:07;3.85;;;1.90;;
66139;SDS011;52945;51.908;8.364;2023-02-24T10:52:14;6.07;;;2.35;;
66139;SDS011;52945;51.908;8.364;2023-02-24T10:58:42;4.75;;;2.67;;
66139;SDS011;52945;51.908;8.364;2023-02-24T11:01:59;4.97;;;2.10;;
66139;SDS011;52945;51.908;8.364;2023-02-24T11:05:28;3.60;;;2.13;;
66139;SDS011;52945;51.908;8.364;2023-02-24T11:09:03;9.88;;;2.55;;
66139;SDS011;52945;51.908;8.364;2023-02-24T11:12:23;5.20;;;2.40;;
66139;SDS011;52945;51.908;8.364;2023-02-24T11:15:52;4.30;;;2.90;;
66139;SDS011;52945;51.908;8.364;2023-02-24T11:19:12;8.95;;;2.53;;
66139;SDS011;52945;51.908;8.364;2023-02-24T11:22:19;9.55;;;2.58;;
66139;SDS011;52945;51.908;8.364;2023-02-24T11:25:35;4.63;;;2.05;;
66139;SDS011;52945;51.908;8.364;2023-02-24T11:35:30;4.65;;;2.20;;
66139;SDS011;52945;51.908;8.364;2023-02-24T11:41:38;3.92;;;2.30;;
66139;SDS011;52945;51.908;8.364;2023-02-24T11:47:54;7.57;;;2.50;;
66139;SDS011;52945;51.908;8.364;2023-02-24T11:51:04;7.03;;;2.55;;
66139;SDS011;52945;51.908;8.364;2023-02-24T11:54:36;4.63;;;2.33;;
66139;SDS011;52945;51.908;8.364;2023-02-24T11:57:42;11.80;;;3.35;;
66139;SDS011;52945;51.908;8.364;2023-02-24T12:00:51;7.53;;;3.03;;
66139;SDS011;52945;51.908;8.364;2023-02-24T12:07:13;5.68;;;3.03;;
66139;SDS011;52945;51.908;8.364;2023-02-24T12:13:31;8.60;;;3.63;;
66139;SDS011;52945;51.908;8.364;2023-02-24T12:16:40;9.20;;;4.00;;
66139;SDS011;52945;51.908;8.364;2023-02-24T12:23:16;13.73;;;4.38;;
66139;SDS011;52945;51.908;8.364;2023-02-24T12:29:49;13.65;;;5.95;;
66139;SDS011;52945;51.908;8.364;2023-02-24T12:33:26;11.00;;;4.72;;
66139;SDS011;52945;51.908;8.364;2023-02-24T12:39:56;11.80;;;5.15;;
66139;SDS011;52945;51.908;8.364;2023-02-24T12:43:29;10.90;;;5.68;;
66139;SDS011;52945;51.908;8.364;2023-02-24T12:46:36;12.43;;;5.45;;
66139;SDS011;52945;51.908;8.364;2023-02-24T12:53:52;11.30;;;4.93;;
66139;SDS011;52945;51.908;8.364;2023-02-24T13:00:36;12.70;;;5.15;;
66139;SDS011;52945;51.908;8.364;2023-02-24T13:13:25;12.77;;;5.28;;
66139;SDS011;52945;51.908;8.364;2023-02-24T13:16:41;11.85;;;5.07;;
66139;SDS011;52945;51.908;8.364;2023-02-24T13:19:43;12.20;;;5.20;;
66139;SDS011;52945;51.908;8.364;2023-02-24T13:22:43;10.32;;;4.90;;
66139;SDS011;52945;51.908;8.364;2023-02-24T13:25:49;8.93;;;4.72;;
66139;SDS011;52945;51.908;8.364;2023-02-24T13:28:58;13.95;;;5.45;;
66139;SDS011;52945;51.908;8.364;2023-02-24T13:32:24;9.40;;;4.45;;
66139;SDS011;52945;51.908;8.364;2023-02-24T13:35:41;12.05;;;5.22;;
66139;SDS011;52945;51.908;8.364;2023-02-24T13:38:44;12.00;;;5.18;;
66139;SDS011;52945;51.908;8.364;2023-02-24T13:41:46;11.50;;;4.72;;
66139;SDS011;52945;51.908;8.364;2023-02-24T13:44:51;9.38;;;4.57;;
66139;SDS011;52945;51.908;8.364;2023-02-24T13:48:36;15.63;;;5.35;;
66139;SDS011;52945;51.908;8.364;2023-02-24T14:01:58;13.07;;;5.65;;
66139;SDS011;52945;51.908;8.364;2023-02-24T14:11:44;12.80;;;5.63;;
66139;SDS011;52945;51.908;8.364;2023-02-24T14:14:45;9.95;;;5.22;;
66139;SDS011;52945;51.908;8.364;2023-02-24T14:17:54;11.95;;;5.03;;
66139;SDS011;52945;51.908;8.364;2023-02-24T14:20:59;13.20;;;5.65;;
66139;SDS011;52945;51.908;8.364;2023-02-24T14:24:01;13.25;;;5.38;;
66139;SDS011;52945;51.908;8.364;2023-02-24T14:27:06;13.25;;;6.05;;
66139;SDS011;52945;51.908;8.364;2023-02-24T14:30:19;13.30;;;5.00;;
66139;SDS011;52945;51.908;8.364;2023-02-24T14:33:30;11.02;;;5.00;;
66139;SDS011;52945;51.908;8.364;2023-02-24T14:36:36;11.73;;;5.63;;
66139;SDS011;52945;51.908;8.364;2023-02-24T14:39:40;13.65;;;6.22;;
66139;SDS011;52945;51.908;8.364;2023-02-24T14:42:59;10.48;;;5.18;;
66139;SDS011;52945;51.908;8.364;2023-02-24T14:46:02;15.85;;;5.85;;
66139;SDS011;52945;51.908;8.364;2023-02-24T14:49:04;13.40;;;5.70;;
66139;SDS011;52945;51.908;8.364;2023-02-24T14:55:22;11.70;;;5.65;;
66139;SDS011;52945;51.908;8.364;2023-02-24T14:58:28;13.80;;;5.97;;
66139;SDS011;52945;51.908;8.364;2023-02-24T15:01:41;16.10;;;6.40;;
66139;SDS011;52945;51.908;8.364;2023-02-24T15:04:46;16.80;;;6.15;;
66139;SDS011;52945;51.908;8.364;2023-02-24T15:07:47;12.90;;;6.65;;
66139;SDS011;52945;51.908;8.364;2023-02-24T15:10:48;10.45;;;4.97;;
66139;SDS011;52945;51.908;8.364;2023-02-24T15:13:49;11.73;;;5.82;;
66139;SDS011;52945;51.908;8.364;2023-02-24T15:16:54;14.98;;;6.30;;
66139;SDS011;52945;51.908;8.364;2023-02-24T15:19:59;15.05;;;5.90;;
66139;SDS011;52945;51.908;8.364;2023-02-24T15:23:00;13.00;;;5.53;;
66139;SDS011;52945;51.908;8.364;2023-02-24T15:26:01;21.17;;;6.82;;
66139;SDS011;52945;51.908;8.364;2023-02-24T15:29:17;13.88;;;6.22;;
66139;SDS011;52945;51.908;8.364;2023-02-24T15:32:22;12.40;;;5.50;;
66139;SDS011;52945;51.908;8.364;2023-02-24T15:35:24;11.95;;;5.10;;
66139;SDS011;52945;51.908;8.364;2023-02-24T15:41:38;17.23;;;5.70;;
66139;SDS011;52945;51.908;8.364;2023-02-24T15:44:53;14.00;;;5.97;;
66139;SDS011;52945;51.908;8.364;2023-02-24T15:47:57;11.80;;;5.32;;
66139;SDS011;52945;51.908;8.364;2023-02-24T15:51:00;16.45;;;6.95;;
66139;SDS011;52945;51.908;8.364;2023-02-24T15:54:10;11.32;;;5.20;;
66139;SDS011;52945;51.908;8.364;2023-02-24T15:57:13;9.73;;;4.97;;
66139;SDS011;52945;51.908;8.364;2023-02-24T16:00:16;11.02;;;5.00;;
66139;SDS011;52945;51.908;8.364;2023-02-24T16:03:18;9.68;;;5.07;;
66139;SDS011;52945;51.908;8.364;2023-02-24T16:06:19;11.20;;;4.88;;
66139;SDS011;52945;51.908;8.364;2023-02-24T16:09:31;13.38;;;5.38;;
66139;SDS011;52945;51.908;8.364;2023-02-24T16:12:38;12.43;;;5.63;;
66139;SDS011;52945;51.908;8.364;2023-02-24T16:15:44;13.80;;;5.40;;
66139;SDS011;52945;51.908;8.364;2023-02-24T16:18:45;10.23;;;5.15;;
66139;SDS011;52945;51.908;8.364;2023-02-24T16:21:46;10.82;;;5.75;;
66139;SDS011;52945;51.908;8.364;2023-02-24T16:24:47;15.48;;;6.38;;
66139;SDS011;52945;51.908;8.364;2023-02-24T16:27:47;13.98;;;6.05;;
66139;SDS011;52945;51.908;8.364;2023-02-24T16:30:49;20.20;;;6.63;;
66139;SDS011;52945;51.908;8.364;2023-02-24T16:33:50;20.73;;;7.07;;
66139;SDS011;52945;51.908;8.364;2023-02-24T16:36:51;17.67;;;6.30;;
66139;SDS011;52945;51.908;8.364;2023-02-24T16:39:52;16.27;;;6.00;;
66139;SDS011;52945;51.908;8.364;2023-02-24T16:42:53;14.43;;;7.25;;
66139;SDS011;52945;51.908;8.364;2023-02-24T16:45:54;16.23;;;6.32;;
66139;SDS011;52945;51.908;8.364;2023-02-24T16:49:01;13.88;;;6.55;;
66139;SDS011;52945;51.908;8.364;2023-02-24T16:52:07;13.52;;;5.97;;
66139;SDS011;52945;51.908;8.364;2023-02-24T16:55:09;17.67;;;5.85;;
66139;SDS011;52945;51.908;8.364;2023-02-24T16:58:13;11.75;;;5.75;;
66139;SDS011;52945;51.908;8.364;2023-02-24T17:01:18;10.70;;;4.93;;
66139;SDS011;52945;51.908;8.364;2023-02-24T17:04:20;12.40;;;5.10;;
66139;SDS011;52945;51.908;8.364;2023-02-24T17:07:23;13.98;;;5.40;;
66139;SDS011;52945;51.908;8.364;2023-02-24T17:10:24;12.45;;;5.13;;
66139;SDS011;52945;51.908;8.364;2023-02-24T17:13:25;17.40;;;5.35;;
66139;SDS011;52945;51.908;8.364;2023-02-24T17:16:25;10.50;;;4.63;;
66139;SDS011;52945;51.908;8.364;2023-02-24T17:19:26;10.48;;;5.00;;
66139;SDS011;52945;51.908;8.364;2023-02-24T17:22:26;12.98;;;4.93;;
66139;SDS011;52945;51.908;8.364;2023-02-24T17:25:28;9.88;;;4.70;;
66139;SDS011;52945;51.908;8.364;2023-02-24T17:28:29;14.07;;;5.20;;
66139;SDS011;52945;51.908;8.364;2023-02-24T17:31:30;12.95;;;6.28;;
66139;SDS011;52945;51.908;8.364;2023-02-24T17:34:31;8.60;;;3.65;;
66139;SDS011;52945;51.908;8.364;2023-02-24T17:37:32;5.97;;;2.70;;
66139;SDS011;52945;51.908;8.364;2023-02-24T17:40:33;4.82;;;2.47;;
66139;SDS011;52945;51.908;8.364;2023-02-24T17:43:34;5.35;;;2.35;;
66139;SDS011;52945;51.908;8.364;2023-02-24T17:46:34;6.95;;;2.50;;
66139;SDS011;52945;51.908;8.364;2023-02-24T17:49:35;2.05;;;1.42;;
66139;SDS011;52945;51.908;8.364;2023-02-24T17:52:35;2.08;;;1.70;;
66139;SDS011;52945;51.908;8.364;2023-02-24T17:55:36;5.07;;;1.88;;
66139;SDS011;52945;51.908;8.364;2023-02-24T17:58:37;1.48;;;1.38;;
66139;SDS011;52945;51.908;8.364;2023-02-24T18:01:38;0.73;;;0.70;;
66139;SDS011;52945;51.908;8.364;2023-02-24T18:04:39;1.70;;;1.08;;
66139;SDS011;52945;51.908;8.364;2023-02-24T18:07:40;4.28;;;1.10;;
66139;SDS011;52945;51.908;8.364;2023-02-24T18:10:40;1.98;;;1.40;;
66139;SDS011;52945;51.908;8.364;2023-02-24T18:13:41;3.53;;;1.30;;
66139;SDS011;52945;51.908;8.364;2023-02-24T18:16:42;5.82;;;2.05;;
66139;SDS011;52945;51.908;8.364;2023-02-24T18:19:43;5.35;;;2.20;;
66139;SDS011;52945;51.908;8.364;2023-02-24T18:22:44;5.38;;;1.30;;
66139;SDS011;52945;51.908;8.364;2023-02-24T18:25:44;1.95;;;1.10;;
66139;SDS011;52945;51.908;8.364;2023-02-24T18:28:45;0.40;;;0.40;;
66139;SDS011;52945;51.908;8.364;2023-02-24T18:31:45;5.20;;;0.93;;
66139;SDS011;52945;51.908;8.364;2023-02-24T18:34:46;1.00;;;0.68;;
66139;SDS011;52945;51.908;8.364;2023-02-24T18:37:47;1.05;;;0.93;;
66139;SDS011;52945;51.908;8.364;2023-02-24T18:41:02;1.10;;;0.98;;
66139;SDS011;52945;51.908;8.364;2023-02-24T18:44:04;1.95;;;1.30;;
66139;SDS011;52945;51.908;8.364;2023-02-24T18:47:05;2.30;;;0.88;;
66139;SDS011;52945;51.908;8.364;2023-02-24T18:50:08;1.15;;;0.90;;
66139;SDS011;52945;51.908;8.364;2023-02-24T18:53:09;2.25;;;1.05;;
66139;SDS011;52945;51.908;8.364;2023-02-24T18:56:13;2.40;;;0.80;;
66139;SDS011;52945;51.908;8.364;2023-02-24T18:59:18;0.70;;;0.70;;
66139;SDS011;52945;51.908;8.364;2023-02-24T19:02:18;1.05;;;0.73;;
66139;SDS011;52945;51.908;8.364;2023-02-24T19:05:19;1.02;;;0.93;;
66139;SDS011;52945;51.908;8.364;2023-02-24T19:08:19;1.63;;;0.88;;
66139;SDS011;52945;51.908;8.364;2023-02-24T19:11:20;4.63;;;2.22;;
66139;SDS011;52945;51.908;8.364;2023-02-24T19:14:20;2.22;;;1.30;;
66139;SDS011;52945;51.908;8.364;2023-02-24T19:17:21;4.82;;;1.75;;
66139;SDS011;52945;51.908;8.364;2023-02-24T19:20:22;2.88;;;1.30;;
66139;SDS011;52945;51.908;8.364;2023-02-24T19:23:22;4.28;;;1.23;;
66139;SDS011;52945;51.908;8.364;2023-02-24T19:26:24;1.73;;;0.85;;
66139;SDS011;52945;51.908;8.364;2023-02-24T19:29:26;5.47;;;1.30;;
66139;SDS011;52945;51.908;8.364;2023-02-24T19:32:26;4.68;;;0.93;;
66139;SDS011;52945;51.908;8.364;2023-02-24T19:35:27;4.10;;;1.20;;
66139;SDS011;52945;51.908;8.364;2023-02-24T19:38:27;2.80;;;0.90;;
66139;SDS011;52945;51.908;8.364;2023-02-24T19:41:28;2.78;;;0.95;;
66139;SDS011;52945;51.908;8.364;2023-02-24T19:44:29;3.47;;;0.98;;
66139;SDS011;52945;51.908;8.364;2023-02-24T19:47:30;1.90;;;1.10;;
66139;SDS011;52945;51.908;8.364;2023-02-24T19:50:30;2.30;;;1.38;;
66139;SDS011;52945;51.908;8.364;2023-02-24T19:53:31;1.55;;;0.90;;
66139;SDS011;52945;51.908;8.364;2023-02-24T19:56:35;5.28;;;0.88;;
66139;SDS011;52945;51.908;8.364;2023-02-24T19:59:36;0.60;;;0.60;;
66139;SDS011;52945;51.908;8.364;2023-02-24T20:02:38;3.60;;;1.40;;
66139;SDS011;52945;51.908;8.364;2023-02-24T20:05:39;4.13;;;1.20;;
66139;SDS011;52945;51.908;8.364;2023-02-24T20:08:39;7.93;;;1.40;;
66139;SDS011;52945;51.908;8.364;2023-02-24T20:11:41;1.75;;;1.10;;
66139;SDS011;52945;51.908;8.364;2023-02-24T20:14:43;5.78;;;1.63;;
66139;SDS011;52945;51.908;8.364;2023-02-24T20:17:43;5.97;;;1.45;;
66139;SDS011;52945;51.908;8.364;2023-02-24T20:20:44;3.75;;;1.33;;
66139;SDS011;52945;51.908;8.364;2023-02-24T20:23:45;4.50;;;1.25;;
66139;SDS011;52945;51.908;8.364;2023-02-24T20:26:46;1.98;;;1.00;;